aviador You're here:

KGAG Decoded Metar

GAGE in OK, USA
Report Time2017-05-22 18:53:00
UTC Time2017-05-22 19:21:07
Flight Rules mvfr MVFR
Wind280° at 05 kt
W.Decomp.*RWY 35: 1.0 kt HW 4.9 kt LCW
W.Rank280° ranks 35
Current wind is below 280° avg. (7.2)
Visibility4828 m
Phenomena:Rain
Mist
Clouds:Overcast 045 Hf
Expected CloudBase > 400 ft AGL from Temp-Dew spread
Ceiling4,500 ft
Temp14°C (ISA +3)
Dew Point13°C (94% RH)
AAT13.1°C
QNH1018 hPa
Density Alt2,628 ft
Elevation2,192 ft
Report Wrong Elevation
Raw Report
KGAG 221853Z AUTO 28005KT 3SM RA BR OVC045 14/13 A3006 RMK AO2
RAE24B47 SLP167 P0004 T01440128=

Extra information for KGAG:More info

Metar Taf Metar & Taf Last 4 Metars F.Rules Stats Wind Profile Meteogram Temp Stats Airport Information Weather charts Add Link Nearby VenuesMetar ALERT Operation Metar Decoded Social comments

AIRNAV info for KGAG